createdAt,value
2023-03-06T00:00:56.176Z,-1.55
2023-03-06T00:03:28.351Z,-1.36
2023-03-06T00:05:59.957Z,-1.15
2023-03-06T00:08:33.101Z,-0.99
2023-03-06T00:11:03.561Z,-0.81
2023-03-06T00:13:35.299Z,-0.67
2023-03-06T00:16:07.215Z,-0.52
2023-03-06T00:18:38.083Z,-0.39
2023-03-06T00:21:10.904Z,-0.28
2023-03-06T00:23:44.332Z,-0.20
2023-03-06T00:26:14.800Z,-0.11
2023-03-06T00:28:45.919Z,-0.05
2023-03-06T00:31:16.503Z,-0.04
2023-03-06T00:33:47.103Z,0.01
2023-03-06T00:36:17.697Z,0.05
2023-03-06T00:38:50.841Z,0.07
2023-03-06T00:41:21.364Z,0.09
2023-03-06T00:43:51.937Z,0.10
2023-03-06T00:46:22.346Z,0.11
2023-03-06T00:48:52.933Z,0.09
2023-03-06T00:51:24.829Z,0.08
2023-03-06T00:53:57.888Z,0.07
2023-03-06T00:56:28.537Z,0.05
2023-03-06T00:58:59.095Z,0.04
2023-03-06T01:01:29.748Z,0.02
2023-03-06T01:04:00.134Z,-0.01
2023-03-06T01:06:31.843Z,0.01
2023-03-06T01:09:05.052Z,-0.01
2023-03-06T01:11:35.643Z,-0.07
2023-03-06T01:14:06.297Z,-0.15
2023-03-06T01:16:40.043Z,-0.03
2023-03-06T01:19:10.879Z,-0.05
2023-03-06T01:21:43.050Z,-0.07
2023-03-06T01:24:16.237Z,-0.08
2023-03-06T01:26:46.692Z,-0.10
2023-03-06T01:29:18.470Z,-0.10
2023-03-06T01:31:49.124Z,-0.14
2023-03-06T01:34:19.752Z,-0.14
2023-03-06T01:36:50.913Z,-0.17
2023-03-06T01:39:24.040Z,-0.20
2023-03-06T01:41:54.461Z,-0.22
2023-03-06T01:44:25.824Z,-0.24
2023-03-06T01:46:56.355Z,-0.27
2023-03-06T01:49:29.743Z,-0.30
2023-03-06T01:52:05.439Z,-0.32
2023-03-06T01:54:44.680Z,-0.32
2023-03-06T01:57:17.991Z,-0.34
2023-03-06T01:59:53.347Z,-0.36
2023-03-06T02:02:24.391Z,-0.37
2023-03-06T02:04:55.011Z,-0.38
2023-03-06T02:07:25.912Z,-0.40
2023-03-06T02:09:59.662Z,-0.42
2023-03-06T02:12:30.301Z,-0.43
2023-03-06T02:15:01.030Z,-0.45
2023-03-06T02:17:33.192Z,-0.47
2023-03-06T02:20:10.694Z,-0.51
2023-03-06T02:22:52.601Z,-0.50
2023-03-06T02:25:36.608Z,-0.53
2023-03-06T02:28:08.276Z,-0.56
2023-03-06T02:30:39.439Z,-0.56
2023-03-06T02:33:10.278Z,-0.58
2023-03-06T02:35:42.391Z,-0.61
2023-03-06T02:38:16.745Z,-0.60
2023-03-06T02:40:52.790Z,-0.61
2023-03-06T02:43:28.526Z,-0.63
2023-03-06T02:45:59.160Z,-0.67
2023-03-06T02:48:30.101Z,-0.69
2023-03-06T02:51:00.660Z,-0.69
2023-03-06T02:53:31.699Z,-0.70
2023-03-06T02:56:05.882Z,-0.70
2023-03-06T02:58:36.786Z,-0.71
2023-03-06T03:01:08.013Z,-0.73
2023-03-06T03:03:39.061Z,-0.74
2023-03-06T03:06:11.030Z,-0.75
2023-03-06T03:08:41.819Z,-0.78
2023-03-06T03:11:16.027Z,-0.80
2023-03-06T03:13:48.101Z,-0.80
2023-03-06T03:16:23.953Z,-0.81
2023-03-06T03:18:54.659Z,-0.82
2023-03-06T03:21:26.939Z,-0.83
2023-03-06T03:23:59.246Z,-0.83
2023-03-06T03:26:34.578Z,-0.84
2023-03-06T03:29:11.117Z,-0.86
2023-03-06T03:31:41.920Z,-0.88
2023-03-06T03:34:12.917Z,-0.86
2023-03-06T03:36:45.536Z,-0.86
2023-03-06T03:39:18.269Z,-0.83
2023-03-06T03:41:51.383Z,-0.82
2023-03-06T03:44:23.029Z,-0.82
2023-03-06T03:46:53.620Z,-0.83
2023-03-06T03:49:26.323Z,-0.86
2023-03-06T03:51:57.653Z,-0.88
2023-03-06T03:54:30.776Z,-0.87
2023-03-06T03:57:04.574Z,-0.88
2023-03-06T03:59:38.688Z,-0.90
2023-03-06T04:02:24.047Z,-0.93
2023-03-06T04:05:02.309Z,-0.95
2023-03-06T04:07:34.104Z,-0.95
2023-03-06T04:10:04.592Z,-0.96
2023-03-06T04:12:37.980Z,-0.98
2023-03-06T04:15:10.373Z,-1.00
2023-03-06T04:17:41.903Z,-1.00
2023-03-06T04:20:17.968Z,-1.03
2023-03-06T04:22:50.190Z,-1.03
2023-03-06T04:25:21.361Z,-1.04
2023-03-06T04:27:55.369Z,-1.08
2023-03-06T04:30:26.034Z,-1.08
2023-03-06T04:32:56.592Z,-1.08
2023-03-06T04:35:27.342Z,-1.09
2023-03-06T04:38:05.855Z,-1.09
2023-03-06T04:40:39.183Z,-1.10
2023-03-06T04:43:12.449Z,-1.12
2023-03-06T04:45:43.416Z,-1.12
2023-03-06T04:48:16.644Z,-1.22
2023-03-06T04:50:47.430Z,-1.13
2023-03-06T04:53:20.011Z,-1.13
2023-03-06T04:55:50.622Z,-1.15
2023-03-06T04:58:24.820Z,-1.16
2023-03-06T05:00:55.414Z,-1.16
2023-03-06T05:03:26.083Z,-1.15
2023-03-06T05:05:56.631Z,-1.14
2023-03-06T05:08:27.097Z,-1.15
2023-03-06T05:10:59.408Z,-1.16
2023-03-06T05:13:32.785Z,-1.16
2023-03-06T05:16:05.790Z,-1.19
2023-03-06T05:18:36.973Z,-1.16
2023-03-06T05:21:08.352Z,-1.15
2023-03-06T05:23:41.654Z,-1.17
2023-03-06T05:26:14.102Z,-1.09
2023-03-06T05:28:47.249Z,-1.05
2023-03-06T05:31:17.783Z,-1.01
2023-03-06T05:33:48.411Z,-1.06
2023-03-06T05:36:18.854Z,-0.91
2023-03-06T05:38:49.266Z,-0.84
2023-03-06T05:41:19.906Z,-0.77
2023-03-06T05:43:53.063Z,-0.69
2023-03-06T05:46:23.508Z,-0.61
2023-03-06T05:48:55.505Z,-0.46
2023-03-06T05:51:26.831Z,-0.26
2023-03-06T05:53:57.246Z,-0.11
2023-03-06T05:56:27.731Z,0.06
2023-03-06T05:59:00.840Z,0.23
2023-03-06T06:01:31.545Z,0.44
2023-03-06T06:04:02.078Z,0.67
2023-03-06T06:06:32.549Z,0.90
2023-03-06T06:09:03.491Z,1.14
2023-03-06T06:11:33.975Z,1.42
2023-03-06T06:14:07.166Z,1.70
2023-03-06T06:16:37.686Z,1.99
2023-03-06T06:19:08.123Z,2.28
2023-03-06T06:21:38.561Z,2.60
2023-03-06T06:24:09.748Z,2.93
2023-03-06T06:26:40.166Z,3.30
2023-03-06T06:29:13.663Z,3.70
2023-03-06T06:31:44.658Z,4.10
2023-03-06T06:34:15.658Z,4.51
2023-03-06T06:36:46.553Z,4.92
2023-03-06T06:39:19.167Z,5.41
2023-03-06T06:42:05.550Z,5.87
2023-03-06T06:44:43.183Z,6.47
2023-03-06T06:47:23.659Z,6.98
2023-03-06T06:49:55.886Z,7.53
2023-03-06T06:52:27.789Z,8.03
2023-03-06T06:54:58.541Z,8.52
2023-03-06T06:57:29.086Z,8.97
2023-03-06T07:00:02.170Z,9.42
2023-03-06T07:02:35.901Z,9.90
2023-03-06T07:05:06.437Z,10.25
2023-03-06T07:07:38.705Z,10.52
2023-03-06T07:10:14.319Z,10.80
2023-03-06T07:12:44.811Z,11.04
2023-03-06T07:15:19.351Z,11.18
2023-03-06T07:17:50.346Z,11.29
2023-03-06T07:20:21.780Z,11.40
2023-03-06T07:22:52.661Z,11.57
2023-03-06T07:25:23.858Z,11.69
2023-03-06T07:27:56.166Z,11.81
2023-03-06T07:30:29.645Z,11.93
2023-03-06T07:33:01.302Z,12.07
2023-03-06T07:35:32.056Z,12.25
2023-03-06T07:38:02.770Z,12.48
2023-03-06T07:40:33.262Z,12.83
2023-03-06T07:43:18.299Z,13.18
2023-03-06T07:46:06.113Z,13.50
2023-03-06T07:48:37.955Z,13.77
2023-03-06T07:51:11.218Z,13.95
2023-03-06T07:53:41.814Z,14.10
2023-03-06T07:56:13.049Z,14.24
2023-03-06T07:58:45.234Z,14.42
2023-03-06T08:01:20.204Z,14.61
2023-03-06T08:03:51.845Z,14.80
2023-03-06T08:06:23.983Z,14.86
2023-03-06T08:08:55.814Z,14.95
2023-03-06T08:11:28.063Z,15.11
2023-03-06T08:13:59.822Z,15.26
2023-03-06T08:16:33.958Z,15.42
2023-03-06T08:19:04.432Z,15.53
2023-03-06T08:21:34.886Z,15.54
2023-03-06T08:24:07.473Z,15.56
2023-03-06T08:26:38.108Z,15.53
2023-03-06T08:29:08.684Z,15.36
2023-03-06T08:31:43.563Z,15.18
2023-03-06T08:34:16.264Z,15.01
2023-03-06T08:36:47.008Z,14.82
2023-03-06T08:39:18.086Z,14.50
2023-03-06T08:41:48.601Z,14.24
2023-03-06T08:44:19.087Z,13.94
2023-03-06T08:46:52.272Z,13.64
2023-03-06T08:49:23.023Z,13.37
2023-03-06T08:51:53.663Z,13.17
2023-03-06T08:54:24.267Z,13.04
2023-03-06T08:56:54.806Z,12.94
2023-03-06T08:59:25.355Z,12.88
2023-03-06T09:01:58.488Z,12.87
2023-03-06T09:04:29.300Z,12.97
2023-03-06T09:06:59.811Z,13.08
2023-03-06T09:09:30.271Z,13.18
2023-03-06T09:12:00.769Z,13.17
2023-03-06T09:14:31.436Z,13.11
2023-03-06T09:17:04.517Z,13.01
2023-03-06T09:19:35.064Z,12.91
2023-03-06T09:22:05.496Z,12.87
2023-03-06T09:24:36.412Z,12.80
2023-03-06T09:27:07.157Z,12.79
2023-03-06T09:29:37.614Z,12.72
2023-03-06T09:32:12.254Z,12.71
2023-03-06T09:34:42.889Z,12.67
2023-03-06T09:37:13.314Z,12.68
2023-03-06T09:39:43.888Z,12.62
2023-03-06T09:42:18.994Z,12.64
2023-03-06T09:44:54.943Z,12.67
2023-03-06T09:47:48.575Z,12.73
2023-03-06T09:50:42.156Z,12.72
2023-03-06T09:53:24.035Z,12.79
2023-03-06T09:56:03.917Z,12.78
2023-03-06T09:58:40.785Z,12.74
2023-03-06T10:01:20.502Z,12.66
2023-03-06T10:03:57.937Z,12.65
2023-03-06T10:06:33.221Z,12.57
2023-03-06T10:09:08.530Z,12.47
2023-03-06T10:11:44.911Z,12.39
2023-03-06T10:14:24.807Z,12.28
2023-03-06T10:16:55.262Z,12.22
2023-03-06T10:19:36.757Z,12.19
2023-03-06T10:22:16.030Z,12.20
2023-03-06T10:24:56.159Z,12.29
2023-03-06T10:27:41.778Z,12.34
2023-03-06T10:30:28.975Z,12.28
2023-03-06T10:33:01.898Z,12.26
2023-03-06T10:35:48.932Z,12.30
2023-03-06T10:38:24.112Z,12.42
2023-03-06T10:41:05.170Z,12.55
2023-03-06T10:43:36.613Z,12.66
2023-03-06T10:46:08.457Z,12.71
2023-03-06T10:48:41.997Z,12.75
2023-03-06T10:51:20.575Z,12.80
2023-03-06T10:53:57.485Z,12.89
2023-03-06T10:56:33.345Z,12.94
2023-03-06T10:59:12.231Z,12.94
2023-03-06T11:01:43.844Z,12.95
2023-03-06T11:04:30.355Z,13.06
2023-03-06T11:07:18.956Z,13.26
2023-03-06T11:10:03.799Z,13.46
2023-03-06T11:12:36.779Z,13.64
2023-03-06T11:15:24.034Z,13.86
2023-03-06T11:17:57.808Z,14.03
2023-03-06T11:20:48.601Z,14.21
2023-03-06T11:23:27.740Z,14.35
2023-03-06T11:26:01.574Z,14.37
2023-03-06T11:28:35.716Z,14.38
2023-03-06T11:31:11.777Z,14.40
2023-03-06T11:33:48.793Z,14.48
2023-03-06T11:36:26.771Z,14.66
2023-03-06T11:38:59.924Z,14.85
2023-03-06T11:41:42.109Z,15.03
2023-03-06T11:44:23.378Z,15.16
2023-03-06T11:47:01.938Z,15.28
2023-03-06T11:49:36.225Z,15.40
2023-03-06T11:52:12.114Z,15.41
2023-03-06T11:54:45.308Z,15.51
2023-03-06T11:57:20.819Z,15.62
2023-03-06T12:00:20.060Z,15.66
2023-03-06T12:03:23.206Z,15.65
2023-03-06T12:06:03.980Z,15.58
2023-03-06T12:08:54.547Z,15.61
2023-03-06T12:11:35.756Z,15.60
2023-03-06T12:14:34.612Z,15.61
2023-03-06T12:17:15.466Z,15.61
2023-03-06T12:19:59.497Z,15.63
2023-03-06T12:22:57.803Z,15.62
2023-03-06T12:25:38.251Z,15.61
2023-03-06T12:28:32.259Z,15.61
2023-03-06T12:31:27.419Z,15.63
2023-03-06T12:34:09.969Z,15.60
2023-03-06T12:36:53.675Z,15.51
2023-03-06T12:39:38.158Z,15.33
2023-03-06T12:42:33.098Z,15.11
2023-03-06T12:45:34.931Z,14.89
2023-03-06T12:48:05.596Z,14.74
2023-03-06T12:50:39.201Z,14.58
2023-03-06T12:53:15.822Z,14.44
2023-03-06T12:55:49.807Z,14.28
2023-03-06T12:58:51.820Z,13.99
2023-03-06T13:01:55.833Z,13.70
2023-03-06T13:04:37.301Z,13.58
2023-03-06T13:07:23.032Z,13.43
2023-03-06T13:10:08.028Z,13.30
2023-03-06T13:12:55.881Z,13.19
2023-03-06T13:16:07.306Z,13.11
2023-03-06T13:19:05.268Z,13.04
2023-03-06T13:22:11.139Z,12.92
2023-03-06T13:24:44.266Z,12.84
2023-03-06T13:27:35.856Z,12.78
2023-03-06T13:30:25.943Z,12.74
2023-03-06T13:32:58.103Z,12.64
2023-03-06T13:35:55.617Z,12.58
2023-03-06T13:38:37.882Z,12.53
2023-03-06T13:41:44.019Z,12.40
2023-03-06T13:44:51.207Z,12.40
2023-03-06T13:48:02.887Z,12.34
2023-03-06T13:50:39.083Z,12.26
2023-03-06T13:53:40.936Z,12.25
2023-03-06T13:56:44.321Z,12.23
2023-03-06T13:59:38.839Z,12.21
2023-03-06T14:02:28.220Z,12.22
2023-03-06T14:05:00.880Z,12.23
2023-03-06T14:07:34.794Z,12.24
2023-03-06T14:10:17.865Z,12.22
2023-03-06T14:13:04.425Z,12.28
2023-03-06T14:15:49.072Z,12.28
2023-03-06T14:18:24.012Z,12.28
2023-03-06T14:20:59.767Z,12.27
2023-03-06T14:23:34.539Z,12.25
2023-03-06T14:26:18.130Z,12.25
2023-03-06T14:28:59.459Z,12.26
2023-03-06T14:31:35.651Z,12.26
2023-03-06T14:34:08.182Z,12.27
2023-03-06T14:36:45.206Z,12.28
2023-03-06T14:39:18.023Z,12.28
2023-03-06T14:41:48.560Z,12.27
2023-03-06T14:44:22.218Z,12.27
2023-03-06T14:46:58.070Z,12.27
2023-03-06T14:49:29.578Z,12.26
2023-03-06T14:52:02.578Z,12.25
2023-03-06T14:54:37.128Z,12.24
2023-03-06T14:57:11.127Z,12.23
2023-03-06T14:59:46.851Z,12.22
2023-03-06T15:02:25.853Z,12.21
2023-03-06T15:05:01.567Z,12.21
2023-03-06T15:07:35.924Z,12.18
2023-03-06T15:10:10.728Z,12.18
2023-03-06T15:12:42.507Z,12.16
2023-03-06T15:15:32.762Z,12.13
2023-03-06T15:18:06.254Z,12.10
2023-03-06T15:20:46.547Z,12.06
2023-03-06T15:23:22.930Z,12.03
2023-03-06T15:25:56.119Z,11.98
2023-03-06T15:28:33.227Z,11.93
2023-03-06T15:31:20.147Z,11.88
2023-03-06T15:34:24.084Z,11.83
2023-03-06T15:36:59.896Z,11.78
2023-03-06T15:39:39.390Z,11.73
2023-03-06T15:42:20.962Z,11.67
2023-03-06T15:44:53.501Z,11.61
2023-03-06T15:47:24.585Z,11.58
2023-03-06T15:49:58.027Z,11.55
2023-03-06T15:52:28.644Z,11.51
2023-03-06T15:54:59.070Z,11.47
2023-03-06T15:57:32.075Z,11.41
2023-03-06T16:00:04.963Z,11.35
2023-03-06T16:02:42.170Z,11.25
2023-03-06T16:05:18.659Z,11.13
2023-03-06T16:07:49.756Z,11.03
2023-03-06T16:10:22.455Z,10.90
2023-03-06T16:12:55.745Z,10.84
2023-03-06T16:15:29.230Z,10.79
2023-03-06T16:18:00.278Z,10.76
2023-03-06T16:20:33.857Z,10.70
2023-03-06T16:23:10.503Z,10.67
2023-03-06T16:25:42.496Z,10.63
2023-03-06T16:28:15.365Z,10.59
2023-03-06T16:30:48.040Z,10.54
2023-03-06T16:33:18.594Z,10.12
2023-03-06T16:35:51.892Z,9.31
2023-03-06T16:38:22.353Z,8.67
2023-03-06T16:40:52.986Z,8.36
2023-03-06T16:43:23.492Z,8.25
2023-03-06T16:45:54.062Z,8.04
2023-03-06T16:48:24.547Z,7.97
2023-03-06T16:50:57.666Z,7.90
2023-03-06T16:53:28.260Z,7.64
2023-03-06T16:55:58.981Z,7.68
2023-03-06T16:58:29.533Z,7.67
2023-03-06T17:01:00.713Z,7.48
2023-03-06T17:03:31.440Z,7.29
2023-03-06T17:06:04.629Z,7.25
2023-03-06T17:08:35.250Z,7.38
2023-03-06T17:11:08.703Z,7.41
2023-03-06T17:13:39.239Z,7.54
2023-03-06T17:16:11.484Z,7.50
2023-03-06T17:18:42.092Z,7.27
2023-03-06T17:21:17.624Z,7.01
2023-03-06T17:23:47.896Z,7.04
2023-03-06T17:26:20.402Z,6.86
2023-03-06T17:28:51.175Z,6.58
2023-03-06T17:31:24.087Z,5.87
2023-03-06T17:33:57.394Z,5.12
2023-03-06T17:36:31.118Z,4.47
2023-03-06T17:39:04.155Z,3.96
2023-03-06T17:41:34.625Z,3.59
2023-03-06T17:44:05.149Z,3.39
2023-03-06T17:46:36.086Z,3.34
2023-03-06T17:49:07.355Z,3.49
2023-03-06T17:51:40.522Z,3.68
2023-03-06T17:54:11.272Z,3.88
2023-03-06T17:56:42.114Z,3.94
2023-03-06T17:59:12.791Z,3.87
2023-03-06T18:01:45.282Z,3.67
2023-03-06T18:04:17.124Z,3.47
2023-03-06T18:06:50.477Z,3.33
2023-03-06T18:09:21.120Z,3.19
2023-03-06T18:11:52.194Z,3.06
2023-03-06T18:14:23.012Z,3.01
2023-03-06T18:16:53.783Z,2.90
2023-03-06T18:19:24.432Z,2.87
2023-03-06T18:21:57.821Z,2.95
2023-03-06T18:24:28.447Z,3.05
2023-03-06T18:26:59.159Z,3.22
2023-03-06T18:29:29.738Z,3.32
2023-03-06T18:32:00.375Z,3.38
2023-03-06T18:34:31.224Z,3.33
2023-03-06T18:37:04.715Z,3.13
2023-03-06T18:39:36.042Z,2.88
2023-03-06T18:42:07.456Z,2.72
2023-03-06T18:44:38.976Z,2.55
2023-03-06T18:47:09.889Z,2.47
2023-03-06T18:49:44.074Z,2.57
2023-03-06T18:52:17.637Z,2.91
2023-03-06T18:54:49.150Z,3.10
2023-03-06T18:57:19.965Z,3.45
2023-03-06T18:59:51.322Z,3.71
2023-03-06T19:02:23.671Z,3.97
2023-03-06T19:04:58.328Z,4.18
2023-03-06T19:07:32.411Z,4.42
2023-03-06T19:10:06.997Z,4.60
2023-03-06T19:12:38.479Z,4.79
2023-03-06T19:15:11.872Z,4.92
2023-03-06T19:17:43.254Z,5.10
2023-03-06T19:20:17.340Z,5.23
2023-03-06T19:22:53.227Z,5.38
2023-03-06T19:25:27.596Z,5.44
2023-03-06T19:27:59.499Z,5.57
2023-03-06T19:30:30.791Z,5.66
2023-03-06T19:33:02.220Z,5.72
2023-03-06T19:35:33.824Z,5.76
2023-03-06T19:38:09.528Z,5.85
2023-03-06T19:40:40.417Z,5.90
2023-03-06T19:43:11.187Z,5.93
2023-03-06T19:45:46.026Z,5.96
2023-03-06T19:48:17.988Z,6.01
2023-03-06T19:50:48.777Z,6.02
2023-03-06T19:53:21.954Z,6.04
2023-03-06T19:55:52.503Z,6.03
2023-03-06T19:58:23.022Z,6.03
2023-03-06T20:00:54.010Z,6.02
2023-03-06T20:03:28.332Z,5.88
2023-03-06T20:05:59.024Z,5.86
2023-03-06T20:08:32.313Z,5.76
2023-03-06T20:11:02.856Z,5.75
2023-03-06T20:13:34.362Z,5.60
2023-03-06T20:16:06.807Z,5.61
2023-03-06T20:18:37.588Z,5.47
2023-03-06T20:21:09.446Z,5.43
2023-03-06T20:23:42.789Z,5.38
2023-03-06T20:26:15.461Z,5.38
2023-03-06T20:28:46.604Z,5.34
2023-03-06T20:31:19.913Z,5.34
2023-03-06T20:33:53.113Z,5.31
2023-03-06T20:36:25.454Z,5.17
2023-03-06T20:38:59.165Z,4.92
2023-03-06T20:41:31.818Z,4.65
2023-03-06T20:44:03.478Z,4.66
2023-03-06T20:46:34.721Z,4.64
2023-03-06T20:49:05.193Z,4.69
2023-03-06T20:51:39.313Z,4.69
2023-03-06T20:54:15.839Z,4.76
2023-03-06T20:56:49.611Z,4.75
2023-03-06T20:59:20.294Z,4.64
2023-03-06T21:01:51.198Z,4.62
2023-03-06T21:04:21.737Z,4.67
2023-03-06T21:06:52.289Z,4.56
2023-03-06T21:09:25.471Z,4.50
2023-03-06T21:11:55.889Z,4.33
2023-03-06T21:14:26.437Z,4.30
2023-03-06T21:16:57.071Z,4.36
2023-03-06T21:19:27.556Z,4.43
2023-03-06T21:21:58.220Z,4.49
2023-03-06T21:24:31.577Z,4.53
2023-03-06T21:27:02.011Z,4.54
2023-03-06T21:29:32.839Z,4.45
2023-03-06T21:32:03.413Z,4.29
2023-03-06T21:34:33.897Z,4.25
2023-03-06T21:37:04.523Z,4.26
2023-03-06T21:39:38.748Z,4.21
2023-03-06T21:42:09.718Z,4.14
2023-03-06T21:44:40.263Z,3.99
2023-03-06T21:47:10.731Z,4.07
2023-03-06T21:49:41.527Z,4.16
2023-03-06T21:52:12.153Z,4.27
2023-03-06T21:54:45.267Z,4.28
2023-03-06T21:57:15.871Z,4.17
2023-03-06T21:59:46.297Z,3.89
2023-03-06T22:02:17.699Z,3.60
2023-03-06T22:04:52.733Z,3.57
2023-03-06T22:07:23.226Z,3.52
2023-03-06T22:09:58.415Z,3.59
2023-03-06T22:12:28.922Z,3.53
2023-03-06T22:14:59.545Z,3.08
2023-03-06T22:17:29.996Z,2.50
2023-03-06T22:20:00.570Z,2.25
2023-03-06T22:22:31.074Z,2.21
2023-03-06T22:25:05.140Z,2.18
2023-03-06T22:27:35.664Z,1.83
2023-03-06T22:30:06.324Z,1.41
2023-03-06T22:32:36.959Z,1.10
2023-03-06T22:35:08.376Z,0.90
2023-03-06T22:37:38.840Z,0.79
2023-03-06T22:40:13.756Z,0.76
2023-03-06T22:42:44.187Z,0.79
2023-03-06T22:45:15.266Z,0.83
2023-03-06T22:47:45.786Z,0.91
2023-03-06T22:50:16.398Z,0.99
2023-03-06T22:52:47.123Z,1.02
2023-03-06T22:55:20.448Z,0.99
2023-03-06T22:57:51.069Z,0.90
2023-03-06T23:00:22.585Z,0.82
2023-03-06T23:02:53.332Z,0.73
2023-03-06T23:05:24.840Z,0.65
2023-03-06T23:07:55.424Z,0.57
2023-03-06T23:10:28.704Z,0.52
2023-03-06T23:13:17.808Z,0.56
2023-03-06T23:16:08.315Z,0.70
2023-03-06T23:18:57.515Z,0.85
2023-03-06T23:21:46.751Z,0.89
2023-03-06T23:24:37.170Z,0.98
2023-03-06T23:27:10.692Z,1.15
2023-03-06T23:29:41.517Z,1.31
2023-03-06T23:32:12.691Z,1.47
2023-03-06T23:34:43.836Z,1.62
2023-03-06T23:37:14.898Z,1.79
2023-03-06T23:39:46.367Z,1.94
2023-03-06T23:42:20.292Z,2.06
2023-03-06T23:44:51.750Z,2.19
2023-03-06T23:47:22.249Z,2.31
2023-03-06T23:49:52.740Z,2.41
2023-03-06T23:52:23.487Z,2.47
2023-03-06T23:54:54.338Z,2.51
2023-03-06T23:57:27.614Z,2.57
2023-03-06T23:59:58.145Z,2.59
